Marl-Loemühle Airfield

METAR EDLW TAF EDLW
8 °C
°C
-
°C
18m
Age
08:38:21
LT
07:38
UTC
0 ft

1,000

2,000

3,000

4,000

5,000

FEW 800
OVC 1,200
MVFR
<?= Yii::t('app', 'Wind direction') ?> <?= Yii::t('app', 'of'); ?>
240°
17:21
Sunset
87%
Humidity
Wind shear
Closed/Snow
RWY visual range
RWY condition
Vert. visibility
Min. visibility
CAVOK
Trend
Correction
Special report
1023 hPa
QNH
METAR EDLW 030720Z 24016KT 9000 -DZ FEW008 OVC012 08/06 Q1023
Light drizzle
3 kt
3 kt
08:00
MVFR
15 kt
09:00
MVFR
15 kt
10:00
MVFR
15 kt
11:00
MVFR
15 kt
12:00
MVFR
15 kt
13:00
MVFR
15 kt
14:00
MVFR
15 kt
9 km
Visibility
1,200 ft
Ceiling
16 kt
Wind
metar-taf.com/EDLM

Metar-Taf.com

Visual decoder

We and third parties follow your internet behavior on our website with cookies. If you continue, we assume you agree with our cookie policy.